sensor_id;sensor_type;location;lat;lon;timestamp;pressure;altitude;pressure_sealevel;temperature;humidity
69707;BME280;56975;55.726;37.566;2023-12-14T00:00:00;100360.0;;;-12.7;82.5
69707;BME280;56975;55.726;37.566;2023-12-14T00:05:08;100330.0;;;-12.6;82.2
69707;BME280;56975;55.726;37.566;2023-12-14T00:10:00;100340.0;;;-12.6;82.5
69707;BME280;56975;55.726;37.566;2023-12-14T00:15:00;100360.0;;;-12.6;82.8
69707;BME280;56975;55.726;37.566;2023-12-14T00:20:08;100350.0;;;-12.5;82.9
69707;BME280;56975;55.726;37.566;2023-12-14T00:25:00;100350.0;;;-12.5;82.9
69707;BME280;56975;55.726;37.566;2023-12-14T00:30:00;100340.0;;;-12.6;83.5
69707;BME280;56975;55.726;37.566;2023-12-14T00:35:07;100350.0;;;-12.7;83.6
69707;BME280;56975;55.726;37.566;2023-12-14T00:40:00;100340.0;;;-12.5;83.6
69707;BME280;56975;55.726;37.566;2023-12-14T00:45:00;100340.0;;;-12.6;83.1
69707;BME280;56975;55.726;37.566;2023-12-14T00:50:08;100340.0;;;-12.6;82.8
69707;BME280;56975;55.726;37.566;2023-12-14T00:55:00;100350.0;;;-12.7;83.0
69707;BME280;56975;55.726;37.566;2023-12-14T01:00:00;100340.0;;;-12.6;84.3
69707;BME280;56975;55.726;37.566;2023-12-14T01:05:08;100340.0;;;-12.6;83.6
69707;BME280;56975;55.726;37.566;2023-12-14T01:10:00;100330.0;;;-12.6;83.1
69707;BME280;56975;55.726;37.566;2023-12-14T01:15:00;100330.0;;;-12.6;83.7
69707;BME280;56975;55.726;37.566;2023-12-14T01:20:08;100340.0;;;-12.6;83.1
69707;BME280;56975;55.726;37.566;2023-12-14T01:25:00;100350.0;;;-12.6;83.1
69707;BME280;56975;55.726;37.566;2023-12-14T01:30:00;100340.0;;;-12.7;83.0
69707;BME280;56975;55.726;37.566;2023-12-14T01:35:07;100340.0;;;-12.6;83.7
69707;BME280;56975;55.726;37.566;2023-12-14T01:40:00;100350.0;;;-12.5;82.9
69707;BME280;56975;55.726;37.566;2023-12-14T01:45:00;100340.0;;;-12.6;83.4
69707;BME280;56975;55.726;37.566;2023-12-14T01:50:08;100320.0;;;-12.6;83.5
69707;BME280;56975;55.726;37.566;2023-12-14T01:55:00;100340.0;;;-12.6;84.3
69707;BME280;56975;55.726;37.566;2023-12-14T02:00:00;100330.0;;;-12.6;84.2
69707;BME280;56975;55.726;37.566;2023-12-14T02:05:07;100330.0;;;-12.6;84.1
69707;BME280;56975;55.726;37.566;2023-12-14T02:10:00;100340.0;;;-12.5;84.3
69707;BME280;56975;55.726;37.566;2023-12-14T02:15:00;100330.0;;;-12.5;84.9
69707;BME280;56975;55.726;37.566;2023-12-14T02:20:08;100330.0;;;-12.4;84.3
69707;BME280;56975;55.726;37.566;2023-12-14T02:25:00;100330.0;;;-12.6;84.1
69707;BME280;56975;55.726;37.566;2023-12-14T02:30:00;100320.0;;;-12.6;84.5
69707;BME280;56975;55.726;37.566;2023-12-14T02:35:08;100330.0;;;-12.4;84.8
69707;BME280;56975;55.726;37.566;2023-12-14T02:40:00;100330.0;;;-12.4;84.6
69707;BME280;56975;55.726;37.566;2023-12-14T02:45:00;100340.0;;;-12.4;83.7
69707;BME280;56975;55.726;37.566;2023-12-14T02:50:08;100330.0;;;-12.5;84.1
69707;BME280;56975;55.726;37.566;2023-12-14T02:55:00;100340.0;;;-12.5;84.2
69707;BME280;56975;55.726;37.566;2023-12-14T03:00:00;100340.0;;;-12.4;84.2
69707;BME280;56975;55.726;37.566;2023-12-14T03:05:08;100330.0;;;-12.4;84.3
69707;BME280;56975;55.726;37.566;2023-12-14T03:10:01;100350.0;;;-12.4;84.7
69707;BME280;56975;55.726;37.566;2023-12-14T03:15:00;100340.0;;;-12.5;84.5
69707;BME280;56975;55.726;37.566;2023-12-14T03:20:08;100340.0;;;-12.4;83.9
69707;BME280;56975;55.726;37.566;2023-12-14T03:25:00;100350.0;;;-12.3;83.7
69707;BME280;56975;55.726;37.566;2023-12-14T03:30:00;100350.0;;;-12.3;83.3
69707;BME280;56975;55.726;37.566;2023-12-14T03:35:07;100340.0;;;-12.4;82.9
69707;BME280;56975;55.726;37.566;2023-12-14T03:40:00;100330.0;;;-12.4;82.9
69707;BME280;56975;55.726;37.566;2023-12-14T03:45:00;100340.0;;;-12.2;82.9
69707;BME280;56975;55.726;37.566;2023-12-14T03:50:10;100340.0;;;-12.3;83.0
69707;BME280;56975;55.726;37.566;2023-12-14T03:55:00;100350.0;;;-12.3;82.5
69707;BME280;56975;55.726;37.566;2023-12-14T04:00:00;100340.0;;;-12.2;82.5
69707;BME280;56975;55.726;37.566;2023-12-14T04:05:08;100340.0;;;-12.3;81.9
69707;BME280;56975;55.726;37.566;2023-12-14T04:10:00;100350.0;;;-12.2;82.2
69707;BME280;56975;55.726;37.566;2023-12-14T04:15:00;100350.0;;;-12.3;82.0
69707;BME280;56975;55.726;37.566;2023-12-14T04:20:15;100330.0;;;-12.4;82.6
69707;BME280;56975;55.726;37.566;2023-12-14T04:25:00;100330.0;;;-12.3;83.4
69707;BME280;56975;55.726;37.566;2023-12-14T04:30:00;100320.0;;;-12.3;82.9
69707;BME280;56975;55.726;37.566;2023-12-14T04:35:08;100330.0;;;-12.2;82.2
69707;BME280;56975;55.726;37.566;2023-12-14T04:40:00;100320.0;;;-12.2;82.1
69707;BME280;56975;55.726;37.566;2023-12-14T04:45:00;100320.0;;;-12.3;81.5
69707;BME280;56975;55.726;37.566;2023-12-14T04:50:08;100320.0;;;-12.3;81.1
69707;BME280;56975;55.726;37.566;2023-12-14T04:55:00;100320.0;;;-12.2;80.9
69707;BME280;56975;55.726;37.566;2023-12-14T05:00:00;100330.0;;;-12.2;80.9
69707;BME280;56975;55.726;37.566;2023-12-14T05:05:07;100330.0;;;-12.3;80.6
69707;BME280;56975;55.726;37.566;2023-12-14T05:10:00;100330.0;;;-12.1;80.5
69707;BME280;56975;55.726;37.566;2023-12-14T05:15:00;100320.0;;;-12.1;80.2
69707;BME280;56975;55.726;37.566;2023-12-14T05:20:08;100330.0;;;-12.2;80.7
69707;BME280;56975;55.726;37.566;2023-12-14T05:25:00;100350.0;;;-12.0;80.0
69707;BME280;56975;55.726;37.566;2023-12-14T05:30:00;100350.0;;;-12.1;81.0
69707;BME280;56975;55.726;37.566;2023-12-14T05:35:07;100350.0;;;-12.1;80.4
69707;BME280;56975;55.726;37.566;2023-12-14T05:40:00;100330.0;;;-12.1;80.6
69707;BME280;56975;55.726;37.566;2023-12-14T05:45:00;100340.0;;;-12.1;80.8
69707;BME280;56975;55.726;37.566;2023-12-14T05:50:07;100340.0;;;-12.0;80.4
69707;BME280;56975;55.726;37.566;2023-12-14T05:55:00;100340.0;;;-11.8;80.3
69707;BME280;56975;55.726;37.566;2023-12-14T06:00:00;100340.0;;;-11.9;80.0
69707;BME280;56975;55.726;37.566;2023-12-14T06:05:08;100340.0;;;-12.2;80.9
69707;BME280;56975;55.726;37.566;2023-12-14T06:10:00;100340.0;;;-12.1;80.9
69707;BME280;56975;55.726;37.566;2023-12-14T06:15:00;100340.0;;;-12.2;80.9
69707;BME280;56975;55.726;37.566;2023-12-14T06:20:08;100340.0;;;-12.2;80.7
69707;BME280;56975;55.726;37.566;2023-12-14T06:25:00;100350.0;;;-12.1;81.9
69707;BME280;56975;55.726;37.566;2023-12-14T06:30:00;100340.0;;;-11.9;81.7
69707;BME280;56975;55.726;37.566;2023-12-14T06:35:07;100350.0;;;-12.0;82.4
69707;BME280;56975;55.726;37.566;2023-12-14T06:40:00;100350.0;;;-11.9;82.4
69707;BME280;56975;55.726;37.566;2023-12-14T06:45:02;100360.0;;;-11.9;82.4
69707;BME280;56975;55.726;37.566;2023-12-14T06:50:08;100350.0;;;-11.9;82.3
69707;BME280;56975;55.726;37.566;2023-12-14T06:55:00;100350.0;;;-11.9;82.0
69707;BME280;56975;55.726;37.566;2023-12-14T07:00:00;100360.0;;;-11.9;82.5
69707;BME280;56975;55.726;37.566;2023-12-14T07:05:08;100360.0;;;-12.0;82.8
69707;BME280;56975;55.726;37.566;2023-12-14T07:10:00;100360.0;;;-11.9;82.9
69707;BME280;56975;55.726;37.566;2023-12-14T07:15:00;100350.0;;;-11.9;82.6
69707;BME280;56975;55.726;37.566;2023-12-14T07:20:08;100350.0;;;-12.0;83.6
69707;BME280;56975;55.726;37.566;2023-12-14T07:25:00;100370.0;;;-12.0;82.9
69707;BME280;56975;55.726;37.566;2023-12-14T07:30:00;100360.0;;;-12.0;82.5
69707;BME280;56975;55.726;37.566;2023-12-14T07:35:08;100380.0;;;-11.9;82.8
69707;BME280;56975;55.726;37.566;2023-12-14T07:40:00;100380.0;;;-12.0;83.6
69707;BME280;56975;55.726;37.566;2023-12-14T07:45:00;100370.0;;;-11.9;82.8
69707;BME280;56975;55.726;37.566;2023-12-14T07:50:08;100370.0;;;-11.8;82.8
69707;BME280;56975;55.726;37.566;2023-12-14T07:55:00;100390.0;;;-11.9;83.1
69707;BME280;56975;55.726;37.566;2023-12-14T08:00:00;100390.0;;;-11.8;83.2
69707;BME280;56975;55.726;37.566;2023-12-14T08:05:07;100390.0;;;-11.8;83.4
69707;BME280;56975;55.726;37.566;2023-12-14T08:10:00;100390.0;;;-11.8;83.6
69707;BME280;56975;55.726;37.566;2023-12-14T08:15:00;100400.0;;;-11.7;83.4
69707;BME280;56975;55.726;37.566;2023-12-14T08:20:08;100390.0;;;-11.7;83.3
69707;BME280;56975;55.726;37.566;2023-12-14T08:25:00;100390.0;;;-11.6;82.4
69707;BME280;56975;55.726;37.566;2023-12-14T08:30:00;100380.0;;;-11.9;82.2
69707;BME280;56975;55.726;37.566;2023-12-14T08:35:08;100390.0;;;-11.8;82.5
69707;BME280;56975;55.726;37.566;2023-12-14T08:40:00;100400.0;;;-11.7;82.1
69707;BME280;56975;55.726;37.566;2023-12-14T08:45:00;100400.0;;;-11.6;81.9
69707;BME280;56975;55.726;37.566;2023-12-14T08:50:07;100390.0;;;-11.6;81.8
69707;BME280;56975;55.726;37.566;2023-12-14T08:55:00;100390.0;;;-11.6;81.3
69707;BME280;56975;55.726;37.566;2023-12-14T09:00:01;100380.0;;;-11.6;81.9
69707;BME280;56975;55.726;37.566;2023-12-14T09:05:07;100380.0;;;-11.6;82.0
69707;BME280;56975;55.726;37.566;2023-12-14T09:10:00;100380.0;;;-11.4;82.0
69707;BME280;56975;55.726;37.566;2023-12-14T09:15:00;100350.0;;;-11.5;81.9
69707;BME280;56975;55.726;37.566;2023-12-14T09:20:08;100360.0;;;-11.4;81.4
69707;BME280;56975;55.726;37.566;2023-12-14T09:25:00;100350.0;;;-11.5;80.9
69707;BME280;56975;55.726;37.566;2023-12-14T09:30:00;100370.0;;;-11.5;81.9
69707;BME280;56975;55.726;37.566;2023-12-14T09:35:07;100380.0;;;-11.4;81.1
69707;BME280;56975;55.726;37.566;2023-12-14T09:40:00;100400.0;;;-11.2;80.0
69707;BME280;56975;55.726;37.566;2023-12-14T09:45:00;100380.0;;;-11.2;79.9
69707;BME280;56975;55.726;37.566;2023-12-14T09:50:08;100390.0;;;-11.3;80.0
69707;BME280;56975;55.726;37.566;2023-12-14T09:55:00;100390.0;;;-11.2;79.6
69707;BME280;56975;55.726;37.566;2023-12-14T10:00:00;100380.0;;;-11.2;79.6
69707;BME280;56975;55.726;37.566;2023-12-14T10:05:09;100390.0;;;-11.1;79.9
69707;BME280;56975;55.726;37.566;2023-12-14T10:10:10;100390.0;;;-11.0;79.6
69707;BME280;56975;55.726;37.566;2023-12-14T10:15:01;100380.0;;;-11.2;79.2
69707;BME280;56975;55.726;37.566;2023-12-14T10:20:07;100370.0;;;-11.0;79.0
69707;BME280;56975;55.726;37.566;2023-12-14T10:25:00;100370.0;;;-10.9;78.8
69707;BME280;56975;55.726;37.566;2023-12-14T10:30:05;100370.0;;;-11.0;78.8
69707;BME280;56975;55.726;37.566;2023-12-14T10:35:07;100370.0;;;-10.8;78.0
69707;BME280;56975;55.726;37.566;2023-12-14T10:40:00;100360.0;;;-10.8;77.8
69707;BME280;56975;55.726;37.566;2023-12-14T10:45:02;100350.0;;;-10.9;78.0
69707;BME280;56975;55.726;37.566;2023-12-14T10:50:08;100350.0;;;-11.0;78.3
69707;BME280;56975;55.726;37.566;2023-12-14T10:55:03;100340.0;;;-10.9;77.7
69707;BME280;56975;55.726;37.566;2023-12-14T11:00:01;100320.0;;;-11.0;78.1
69707;BME280;56975;55.726;37.566;2023-12-14T11:05:07;100330.0;;;-11.0;78.6
69707;BME280;56975;55.726;37.566;2023-12-14T11:10:00;100320.0;;;-10.7;77.9
69707;BME280;56975;55.726;37.566;2023-12-14T11:15:00;100310.0;;;-11.0;78.1
69707;BME280;56975;55.726;37.566;2023-12-14T11:25:01;100320.0;;;-11.0;79.0
69707;BME280;56975;55.726;37.566;2023-12-14T11:30:02;100320.0;;;-10.8;78.7
69707;BME280;56975;55.726;37.566;2023-12-14T11:35:08;100320.0;;;-10.9;78.8
69707;BME280;56975;55.726;37.566;2023-12-14T11:40:00;100310.0;;;-11.1;78.9
69707;BME280;56975;55.726;37.566;2023-12-14T11:45:00;100320.0;;;-10.9;79.2
69707;BME280;56975;55.726;37.566;2023-12-14T11:50:07;100310.0;;;-11.0;79.5
69707;BME280;56975;55.726;37.566;2023-12-14T11:55:00;100330.0;;;-11.1;79.4
69707;BME280;56975;55.726;37.566;2023-12-14T12:00:00;100330.0;;;-11.1;79.5
69707;BME280;56975;55.726;37.566;2023-12-14T12:05:07;100330.0;;;-11.1;80.2
69707;BME280;56975;55.726;37.566;2023-12-14T12:10:00;100330.0;;;-11.1;79.6
69707;BME280;56975;55.726;37.566;2023-12-14T12:15:00;100340.0;;;-11.3;79.4
69707;BME280;56975;55.726;37.566;2023-12-14T12:20:08;100340.0;;;-11.2;80.2
69707;BME280;56975;55.726;37.566;2023-12-14T12:25:00;100340.0;;;-11.1;80.0
69707;BME280;56975;55.726;37.566;2023-12-14T12:30:00;100340.0;;;-11.0;79.6
69707;BME280;56975;55.726;37.566;2023-12-14T12:35:07;100320.0;;;-11.1;79.7
69707;BME280;56975;55.726;37.566;2023-12-14T12:40:00;100330.0;;;-11.0;80.0
69707;BME280;56975;55.726;37.566;2023-12-14T12:45:00;100330.0;;;-11.1;80.1
69707;BME280;56975;55.726;37.566;2023-12-14T12:50:07;100330.0;;;-11.0;80.7
69707;BME280;56975;55.726;37.566;2023-12-14T12:55:00;100340.0;;;-11.1;80.3
69707;BME280;56975;55.726;37.566;2023-12-14T13:00:00;100340.0;;;-11.0;80.1
69707;BME280;56975;55.726;37.566;2023-12-14T13:05:08;100340.0;;;-11.1;80.2
69707;BME280;56975;55.726;37.566;2023-12-14T13:10:00;100340.0;;;-11.1;79.8
69707;BME280;56975;55.726;37.566;2023-12-14T13:15:00;100330.0;;;-11.1;80.0
69707;BME280;56975;55.726;37.566;2023-12-14T13:20:07;100350.0;;;-11.0;79.9
69707;BME280;56975;55.726;37.566;2023-12-14T13:25:00;100320.0;;;-11.2;79.4
69707;BME280;56975;55.726;37.566;2023-12-14T13:30:00;100340.0;;;-11.2;79.6
69707;BME280;56975;55.726;37.566;2023-12-14T13:35:07;100340.0;;;-11.2;79.9
69707;BME280;56975;55.726;37.566;2023-12-14T13:40:00;100320.0;;;-11.2;80.0
69707;BME280;56975;55.726;37.566;2023-12-14T13:45:00;100310.0;;;-11.2;79.8
69707;BME280;56975;55.726;37.566;2023-12-14T13:50:07;100320.0;;;-11.3;79.9
69707;BME280;56975;55.726;37.566;2023-12-14T13:55:00;100310.0;;;-11.1;79.9
69707;BME280;56975;55.726;37.566;2023-12-14T14:00:00;100300.0;;;-11.2;80.2
69707;BME280;56975;55.726;37.566;2023-12-14T14:05:07;100320.0;;;-11.3;80.7
69707;BME280;56975;55.726;37.566;2023-12-14T14:10:00;100320.0;;;-11.2;80.9
69707;BME280;56975;55.726;37.566;2023-12-14T14:15:00;100310.0;;;-11.2;81.2
69707;BME280;56975;55.726;37.566;2023-12-14T14:20:08;100320.0;;;-11.3;81.7
69707;BME280;56975;55.726;37.566;2023-12-14T14:25:00;100300.0;;;-11.1;82.0
69707;BME280;56975;55.726;37.566;2023-12-14T14:30:00;100300.0;;;-11.2;82.7
69707;BME280;56975;55.726;37.566;2023-12-14T14:35:08;100280.0;;;-11.3;83.7
69707;BME280;56975;55.726;37.566;2023-12-14T14:40:00;100280.0;;;-11.2;83.2
69707;BME280;56975;55.726;37.566;2023-12-14T14:45:00;100280.0;;;-11.2;83.2
69707;BME280;56975;55.726;37.566;2023-12-14T14:50:08;100270.0;;;-11.3;83.7
69707;BME280;56975;55.726;37.566;2023-12-14T14:55:00;100280.0;;;-11.3;84.9
69707;BME280;56975;55.726;37.566;2023-12-14T15:00:00;100270.0;;;-11.1;85.0
69707;BME280;56975;55.726;37.566;2023-12-14T15:05:08;100250.0;;;-11.2;85.2
69707;BME280;56975;55.726;37.566;2023-12-14T15:10:00;100230.0;;;-11.1;86.0
69707;BME280;56975;55.726;37.566;2023-12-14T15:15:00;100220.0;;;-11.1;86.8
69707;BME280;56975;55.726;37.566;2023-12-14T15:20:08;100220.0;;;-11.0;87.2
69707;BME280;56975;55.726;37.566;2023-12-14T15:25:00;100200.0;;;-11.1;87.3
69707;BME280;56975;55.726;37.566;2023-12-14T15:30:01;100220.0;;;-11.0;87.5
69707;BME280;56975;55.726;37.566;2023-12-14T15:35:08;100210.0;;;-11.1;86.7
69707;BME280;56975;55.726;37.566;2023-12-14T15:40:00;100200.0;;;-11.0;86.9
69707;BME280;56975;55.726;37.566;2023-12-14T15:45:00;100210.0;;;-11.1;86.9
69707;BME280;56975;55.726;37.566;2023-12-14T15:50:07;100210.0;;;-11.0;86.5
69707;BME280;56975;55.726;37.566;2023-12-14T15:55:00;100200.0;;;-11.0;86.2
69707;BME280;56975;55.726;37.566;2023-12-14T16:00:00;100190.0;;;-10.9;86.4
69707;BME280;56975;55.726;37.566;2023-12-14T16:05:07;100180.0;;;-10.9;85.8
69707;BME280;56975;55.726;37.566;2023-12-14T16:10:00;100160.0;;;-10.7;85.9
69707;BME280;56975;55.726;37.566;2023-12-14T16:15:00;100160.0;;;-10.8;85.9
69707;BME280;56975;55.726;37.566;2023-12-14T16:20:07;100160.0;;;-10.8;85.9
69707;BME280;56975;55.726;37.566;2023-12-14T16:25:00;100160.0;;;-10.8;85.5
69707;BME280;56975;55.726;37.566;2023-12-14T16:30:00;100140.0;;;-10.8;85.7
69707;BME280;56975;55.726;37.566;2023-12-14T16:35:07;100150.0;;;-11.0;85.6
69707;BME280;56975;55.726;37.566;2023-12-14T16:40:00;100120.0;;;-10.9;86.0
69707;BME280;56975;55.726;37.566;2023-12-14T16:45:00;100120.0;;;-10.6;85.6
69707;BME280;56975;55.726;37.566;2023-12-14T16:50:07;100130.0;;;-10.7;85.5
69707;BME280;56975;55.726;37.566;2023-12-14T16:55:00;100140.0;;;-10.8;85.8
69707;BME280;56975;55.726;37.566;2023-12-14T17:00:00;100120.0;;;-10.8;86.3
69707;BME280;56975;55.726;37.566;2023-12-14T17:05:07;100130.0;;;-11.0;86.2
69707;BME280;56975;55.726;37.566;2023-12-14T17:10:00;100120.0;;;-10.9;86.4
69707;BME280;56975;55.726;37.566;2023-12-14T17:15:00;100130.0;;;-10.8;86.3
69707;BME280;56975;55.726;37.566;2023-12-14T17:20:07;100090.0;;;-10.6;86.1
69707;BME280;56975;55.726;37.566;2023-12-14T17:25:00;100070.0;;;-10.7;85.8
69707;BME280;56975;55.726;37.566;2023-12-14T17:30:00;100090.0;;;-10.9;86.1
69707;BME280;56975;55.726;37.566;2023-12-14T17:35:07;100090.0;;;-10.9;86.2
69707;BME280;56975;55.726;37.566;2023-12-14T17:40:00;100040.0;;;-10.7;86.4
69707;BME280;56975;55.726;37.566;2023-12-14T17:45:00;100030.0;;;-10.8;86.6
69707;BME280;56975;55.726;37.566;2023-12-14T17:50:08;100040.0;;;-10.8;86.1
69707;BME280;56975;55.726;37.566;2023-12-14T17:55:00;100000.0;;;-10.9;86.8
69707;BME280;56975;55.726;37.566;2023-12-14T18:00:00;99990.0;;;-10.8;87.1
69707;BME280;56975;55.726;37.566;2023-12-14T18:05:07;99970.0;;;-10.7;86.6
69707;BME280;56975;55.726;37.566;2023-12-14T18:10:00;100000.0;;;-10.8;86.6
69707;BME280;56975;55.726;37.566;2023-12-14T18:15:00;99970.0;;;-10.6;86.3
69707;BME280;56975;55.726;37.566;2023-12-14T18:20:08;99970.0;;;-10.4;86.2
69707;BME280;56975;55.726;37.566;2023-12-14T18:25:00;99960.0;;;-10.7;86.2
69707;BME280;56975;55.726;37.566;2023-12-14T18:30:00;99950.0;;;-10.6;86.9
69707;BME280;56975;55.726;37.566;2023-12-14T18:35:07;99940.0;;;-10.6;87.0
69707;BME280;56975;55.726;37.566;2023-12-14T18:40:00;99940.0;;;-10.7;87.6
69707;BME280;56975;55.726;37.566;2023-12-14T18:45:00;99940.0;;;-10.5;87.8
69707;BME280;56975;55.726;37.566;2023-12-14T18:50:08;99940.0;;;-10.5;87.5
69707;BME280;56975;55.726;37.566;2023-12-14T18:55:00;99930.0;;;-10.6;87.4
69707;BME280;56975;55.726;37.566;2023-12-14T19:00:00;99930.0;;;-10.4;87.5
69707;BME280;56975;55.726;37.566;2023-12-14T19:05:08;99920.0;;;-10.4;88.5
69707;BME280;56975;55.726;37.566;2023-12-14T19:10:00;99910.0;;;-10.6;88.4
69707;BME280;56975;55.726;37.566;2023-12-14T19:15:00;99890.0;;;-10.6;89.4
69707;BME280;56975;55.726;37.566;2023-12-14T19:20:08;99870.0;;;-10.4;88.8
69707;BME280;56975;55.726;37.566;2023-12-14T19:25:00;99880.0;;;-10.6;88.4
69707;BME280;56975;55.726;37.566;2023-12-14T19:30:00;99840.0;;;-10.5;88.7
69707;BME280;56975;55.726;37.566;2023-12-14T19:35:07;99860.0;;;-10.5;89.2
69707;BME280;56975;55.726;37.566;2023-12-14T19:40:00;99870.0;;;-10.3;89.7
69707;BME280;56975;55.726;37.566;2023-12-14T19:45:00;99830.0;;;-10.3;89.8
69707;BME280;56975;55.726;37.566;2023-12-14T19:50:08;99840.0;;;-10.3;89.4
69707;BME280;56975;55.726;37.566;2023-12-14T19:55:00;99830.0;;;-10.3;89.2
69707;BME280;56975;55.726;37.566;2023-12-14T20:00:00;99830.0;;;-10.0;88.8
69707;BME280;56975;55.726;37.566;2023-12-14T20:05:08;99810.0;;;-10.0;88.3
69707;BME280;56975;55.726;37.566;2023-12-14T20:10:00;99800.0;;;-10.1;87.4
69707;BME280;56975;55.726;37.566;2023-12-14T20:15:00;99780.0;;;-10.1;87.6
69707;BME280;56975;55.726;37.566;2023-12-14T20:20:08;99770.0;;;-10.2;87.7
69707;BME280;56975;55.726;37.566;2023-12-14T20:25:00;99790.0;;;-10.1;88.6
69707;BME280;56975;55.726;37.566;2023-12-14T20:30:00;99760.0;;;-10.1;89.2
69707;BME280;56975;55.726;37.566;2023-12-14T20:35:08;99760.0;;;-10.0;89.3
69707;BME280;56975;55.726;37.566;2023-12-14T20:40:10;99750.0;;;-9.9;89.1
69707;BME280;56975;55.726;37.566;2023-12-14T20:45:00;99730.0;;;-10.2;89.9
69707;BME280;56975;55.726;37.566;2023-12-14T20:50:07;99720.0;;;-10.0;90.3
69707;BME280;56975;55.726;37.566;2023-12-14T20:55:00;99710.0;;;-9.9;90.2
69707;BME280;56975;55.726;37.566;2023-12-14T21:00:00;99680.0;;;-10.0;91.2
69707;BME280;56975;55.726;37.566;2023-12-14T21:05:08;99690.0;;;-10.1;91.0
69707;BME280;56975;55.726;37.566;2023-12-14T21:10:00;99670.0;;;-9.9;92.1
69707;BME280;56975;55.726;37.566;2023-12-14T21:15:00;99660.0;;;-9.9;92.0
69707;BME280;56975;55.726;37.566;2023-12-14T21:20:08;99640.0;;;-9.9;91.7
69707;BME280;56975;55.726;37.566;2023-12-14T21:25:01;99630.0;;;-9.9;91.9
69707;BME280;56975;55.726;37.566;2023-12-14T21:30:03;99620.0;;;-9.8;92.2
69707;BME280;56975;55.726;37.566;2023-12-14T21:35:07;99620.0;;;-9.9;92.0
69707;BME280;56975;55.726;37.566;2023-12-14T21:40:00;99600.0;;;-9.7;92.5
69707;BME280;56975;55.726;37.566;2023-12-14T21:45:00;99590.0;;;-9.7;92.7
69707;BME280;56975;55.726;37.566;2023-12-14T21:50:08;99580.0;;;-9.6;92.1
69707;BME280;56975;55.726;37.566;2023-12-14T21:55:00;99560.0;;;-9.5;92.5
69707;BME280;56975;55.726;37.566;2023-12-14T22:00:00;99550.0;;;-9.4;92.6
69707;BME280;56975;55.726;37.566;2023-12-14T22:05:07;99540.0;;;-9.6;92.9
69707;BME280;56975;55.726;37.566;2023-12-14T22:10:00;99540.0;;;-9.5;93.2
69707;BME280;56975;55.726;37.566;2023-12-14T22:15:00;99510.0;;;-9.4;94.0
69707;BME280;56975;55.726;37.566;2023-12-14T22:20:08;99500.0;;;-9.3;94.3
69707;BME280;56975;55.726;37.566;2023-12-14T22:25:00;99490.0;;;-9.3;93.6
69707;BME280;56975;55.726;37.566;2023-12-14T22:30:00;99480.0;;;-9.2;94.3
69707;BME280;56975;55.726;37.566;2023-12-14T22:35:08;99480.0;;;-9.2;94.6
69707;BME280;56975;55.726;37.566;2023-12-14T22:40:01;99470.0;;;-9.2;94.8
69707;BME280;56975;55.726;37.566;2023-12-14T22:45:00;99450.0;;;-9.2;95.0
69707;BME280;56975;55.726;37.566;2023-12-14T22:50:08;99440.0;;;-9.2;95.4
69707;BME280;56975;55.726;37.566;2023-12-14T22:55:00;99430.0;;;-9.2;95.8
69707;BME280;56975;55.726;37.566;2023-12-14T23:00:00;99430.0;;;-9.1;95.5
69707;BME280;56975;55.726;37.566;2023-12-14T23:05:08;99420.0;;;-9.1;95.4
69707;BME280;56975;55.726;37.566;2023-12-14T23:10:00;99420.0;;;-9.1;95.4
69707;BME280;56975;55.726;37.566;2023-12-14T23:15:02;99420.0;;;-8.9;95.8
69707;BME280;56975;55.726;37.566;2023-12-14T23:20:08;99410.0;;;-9.1;95.4
69707;BME280;56975;55.726;37.566;2023-12-14T23:25:00;99410.0;;;-9.0;96.3
69707;BME280;56975;55.726;37.566;2023-12-14T23:30:00;99390.0;;;-9.0;96.1
69707;BME280;56975;55.726;37.566;2023-12-14T23:35:08;99410.0;;;-9.0;96.4
69707;BME280;56975;55.726;37.566;2023-12-14T23:40:00;99410.0;;;-9.1;96.7
69707;BME280;56975;55.726;37.566;2023-12-14T23:45:00;99410.0;;;-9.0;97.8
69707;BME280;56975;55.726;37.566;2023-12-14T23:50:08;99420.0;;;-9.0;97.0
69707;BME280;56975;55.726;37.566;2023-12-14T23:55:00;99400.0;;;-8.9;97.2
